createdAt,value
2019-04-22T00:00:10.768Z,100019.20
2019-04-22T00:02:43.523Z,100023.77
2019-04-22T00:05:16.586Z,100018.48
2019-04-22T00:08:06.823Z,100019.45
2019-04-22T00:10:32.377Z,100020.52
2019-04-22T00:13:00.062Z,100004.84
2019-04-22T00:15:19.491Z,100007.27
2019-04-22T00:18:03.743Z,100016.37
2019-04-22T00:20:22.671Z,100011.89
2019-04-22T00:22:51.878Z,99996.83
2019-04-22T00:25:24.505Z,100010.09
2019-04-22T00:27:51.089Z,100015.16
2019-04-22T00:30:16.438Z,100012.11
2019-04-22T00:32:42.118Z,100017.05
2019-04-22T00:35:14.766Z,100009.16
2019-04-22T00:37:43.854Z,100007.33
2019-04-22T00:40:07.339Z,100009.28
2019-04-22T00:42:39.166Z,100000.52
2019-04-22T00:45:08.055Z,100000.75
2019-04-22T00:47:34.947Z,99999.25
2019-04-22T00:52:28.500Z,100002.17
2019-04-22T00:54:59.517Z,100000.05
2019-04-22T00:57:21.447Z,99998.33
2019-04-22T00:59:55.409Z,99995.50
2019-04-22T01:02:20.280Z,100002.38
2019-04-22T01:04:48.904Z,99998.83
2019-04-22T01:07:18.942Z,99998.22
2019-04-22T01:09:49.356Z,99999.93
2019-04-22T01:12:13.575Z,99974.67
2019-04-22T01:14:41.352Z,99993.98
2019-04-22T01:17:07.921Z,99997.29
2019-04-22T01:19:43.866Z,99990.12
2019-04-22T01:21:58.302Z,99985.27
2019-04-22T01:24:31.081Z,99978.98
2019-04-22T01:26:53.771Z,99987.53
2019-04-22T01:29:16.144Z,99975.30
2019-04-22T01:31:36.268Z,99977.72
2019-04-22T01:34:16.195Z,99982.88
2019-04-22T01:36:51.614Z,99978.44
2019-04-22T01:39:23.212Z,99968.84
2019-04-22T01:42:03.912Z,99967.27
2019-04-22T01:46:50.845Z,99966.83
2019-04-22T01:49:15.954Z,99965.63
2019-04-22T01:51:54.291Z,99960.12
2019-04-22T01:54:22.112Z,99967.67
2019-04-22T01:56:44.965Z,99961.77
2019-04-22T01:59:00.681Z,99958.02
2019-04-22T02:01:41.628Z,99955.23
2019-04-22T02:04:15.221Z,99952.09
2019-04-22T02:06:35.093Z,99944.23
2019-04-22T02:09:09.485Z,99941.09
2019-04-22T02:11:37.296Z,99945.20
2019-04-22T02:13:56.645Z,99933.20
2019-04-22T02:16:32.335Z,99937.39
2019-04-22T02:18:53.073Z,99928.56
2019-04-22T02:21:15.274Z,99927.23
2019-04-22T02:26:15.787Z,99918.47
2019-04-22T02:28:42.727Z,99908.55
2019-04-22T02:38:58.781Z,99896.27
2019-04-22T02:48:53.354Z,99879.45
2019-04-22T02:54:15.234Z,99869.56
2019-04-22T02:58:44.946Z,99858.88
2019-04-22T03:03:45.487Z,99848.95
2019-04-22T03:06:05.326Z,99845.37
2019-04-22T03:08:25.572Z,99837.62
2019-04-22T03:10:56.507Z,99835.03
2019-04-22T03:15:52.881Z,99832.98
2019-04-22T03:18:19.562Z,99827.59
2019-04-22T03:20:53.387Z,99826.39
2019-04-22T03:23:31.774Z,99813.11
2019-04-22T03:28:05.109Z,99812.30
2019-04-22T03:36:58.102Z,99795.44
2019-04-22T03:37:56.193Z,99783.16
2019-04-22T03:43:13.656Z,99782.03
2019-04-22T03:52:53.099Z,99760.84
2019-04-22T04:02:54.205Z,99754.45
2019-04-22T04:05:17.156Z,99752.56
2019-04-22T04:12:42.095Z,99748.91
2019-04-22T04:15:21.168Z,99754.23
2019-04-22T04:25:10.024Z,99744.99
2019-04-22T04:35:12.704Z,99760.58
2019-04-22T04:37:32.151Z,99761.98
2019-04-22T04:39:44.219Z,99752.97
2019-04-22T04:42:32.938Z,99754.16
2019-04-22T04:47:11.594Z,99761.36
2019-04-22T04:49:36.684Z,99764.83
2019-04-22T04:54:31.860Z,99760.84
2019-04-22T04:57:14.601Z,99772.57
2019-04-22T05:01:55.175Z,99773.61
2019-04-22T05:04:26.398Z,99773.91
2019-04-22T05:07:05.781Z,99774.61
2019-04-22T05:11:54.057Z,99780.83
2019-04-22T05:14:14.433Z,99779.56
2019-04-22T05:16:44.637Z,99785.23
2019-04-22T05:19:12.874Z,99779.89
2019-04-22T05:21:36.331Z,99786.66
2019-04-22T05:24:02.377Z,99789.66
2019-04-22T05:26:30.972Z,99796.38
2019-04-22T05:28:53.084Z,99788.95
2019-04-22T05:31:24.372Z,99791.06
2019-04-22T05:33:47.950Z,99793.66
2019-04-22T05:36:25.990Z,99787.77
2019-04-22T05:38:46.309Z,99787.91
2019-04-22T05:43:40.825Z,99800.38
2019-04-22T05:46:09.221Z,99798.75
2019-04-22T05:48:41.523Z,99800.06
2019-04-22T05:51:01.120Z,99796.38
2019-04-22T05:53:37.206Z,99793.59
2019-04-22T05:56:04.186Z,99782.78
2019-04-22T05:58:32.925Z,99779.09
2019-04-22T06:03:37.897Z,99785.64
2019-04-22T06:06:07.825Z,99782.13
2019-04-22T06:08:29.576Z,99782.03
2019-04-22T06:11:04.316Z,99773.72
2019-04-22T06:13:26.783Z,99764.77
2019-04-22T06:15:52.920Z,99761.25
2019-04-22T06:18:27.265Z,99759.06
2019-04-22T06:21:09.019Z,99757.39
2019-04-22T06:26:05.836Z,99742.05
2019-04-22T06:28:28.836Z,99744.31
2019-04-22T06:30:54.615Z,99746.14
2019-04-22T06:33:20.216Z,99735.08
2019-04-22T06:38:30.172Z,99729.58
2019-04-22T06:43:08.827Z,99728.67
2019-04-22T06:45:35.291Z,99719.22
2019-04-22T06:48:17.903Z,99707.67
2019-04-22T06:50:40.483Z,99697.08
2019-04-22T06:53:02.971Z,99707.14
2019-04-22T06:55:35.626Z,99702.16
2019-04-22T06:58:00.375Z,99701.98
2019-04-22T07:03:26.287Z,99687.63
2019-04-22T07:05:25.223Z,99684.02
2019-04-22T07:08:02.775Z,99681.52
2019-04-22T07:10:28.631Z,99685.27
2019-04-22T07:12:48.727Z,99680.19
2019-04-22T07:15:31.687Z,99676.57
2019-04-22T07:20:10.981Z,99658.97
2019-04-22T07:22:51.255Z,99655.89
2019-04-22T07:25:06.235Z,99654.62
2019-04-22T07:27:30.123Z,99659.11
2019-04-22T07:30:09.474Z,99651.35
2019-04-22T07:32:54.954Z,99654.95
2019-04-22T07:35:02.024Z,99657.01
2019-04-22T07:37:39.104Z,99662.08
2019-04-22T07:39:50.128Z,99650.86
2019-04-22T07:42:28.218Z,99650.70
2019-04-22T07:44:54.788Z,99649.69
2019-04-22T07:47:25.750Z,99649.16
2019-04-22T07:52:18.811Z,99649.60
2019-04-22T07:54:46.722Z,99645.11
2019-04-22T07:57:22.739Z,99642.41
2019-04-22T07:59:40.355Z,99638.78
2019-04-22T08:04:56.019Z,99645.94
2019-04-22T08:07:05.450Z,99639.78
2019-04-22T08:09:39.775Z,99643.13
2019-04-22T08:14:28.309Z,99635.52
2019-04-22T08:17:01.566Z,99635.55
2019-04-22T08:19:33.145Z,99648.11
2019-04-22T08:21:52.130Z,99648.31
2019-04-22T08:24:35.713Z,99641.72
2019-04-22T08:26:47.643Z,99643.35
2019-04-22T08:29:20.193Z,99640.87
2019-04-22T08:31:48.695Z,99638.55
2019-04-22T08:34:14.188Z,99644.08
2019-04-22T08:36:55.436Z,99634.63
2019-04-22T08:39:13.651Z,99629.55
2019-04-22T08:41:43.823Z,99636.31
2019-04-22T08:44:07.667Z,99639.25
2019-04-22T08:46:53.948Z,99628.86
2019-04-22T08:48:59.005Z,99635.56
2019-04-22T08:51:31.022Z,99635.82
2019-04-22T08:54:13.703Z,99627.33
2019-04-22T08:56:32.434Z,99631.48
2019-04-22T08:59:02.046Z,99630.20
2019-04-22T09:01:23.397Z,99621.31
2019-04-22T09:03:52.475Z,99620.84
2019-04-22T09:06:36.869Z,99623.59
2019-04-22T09:08:50.408Z,99624.89
2019-04-22T09:11:20.064Z,99616.99
2019-04-22T09:13:43.337Z,99624.60
2019-04-22T09:16:14.529Z,99610.98
2019-04-22T09:18:42.219Z,99612.39
2019-04-22T09:21:15.120Z,99601.28
2019-04-22T09:23:37.123Z,99603.80
2019-04-22T09:26:03.841Z,99605.66
2019-04-22T09:28:33.246Z,99601.55
2019-04-22T09:31:02.036Z,99594.34
2019-04-22T09:33:27.637Z,99590.78
2019-04-22T09:38:32.847Z,99585.53
2019-04-22T09:41:05.416Z,99575.95
2019-04-22T09:43:17.034Z,99577.92
2019-04-22T09:45:47.712Z,99577.12
2019-04-22T09:48:18.804Z,99576.77
2019-04-22T09:50:43.182Z,99567.59
2019-04-22T09:53:08.095Z,99567.45
2019-04-22T09:55:34.558Z,99560.72
2019-04-22T09:58:02.788Z,99558.28
2019-04-22T10:00:39.504Z,99553.27
2019-04-22T10:03:10.030Z,99552.88
2019-04-22T10:05:32.871Z,99548.18
2019-04-22T10:08:14.554Z,99545.27
2019-04-22T10:10:26.846Z,99545.03
2019-04-22T10:12:57.805Z,99535.19
2019-04-22T10:15:26.749Z,99539.27
2019-04-22T10:17:57.993Z,99527.13
2019-04-22T10:20:28.178Z,99523.62
2019-04-22T10:22:53.216Z,99517.29
2019-04-22T10:25:16.334Z,99526.92
2019-04-22T10:27:51.389Z,99519.52
2019-04-22T10:30:32.148Z,99525.41
2019-04-22T10:32:43.027Z,99510.38
2019-04-22T10:34:59.103Z,99509.69
2019-04-22T10:37:21.816Z,99503.41
2019-04-22T10:39:56.221Z,99505.81
2019-04-22T10:42:17.405Z,99496.60
2019-04-22T10:44:45.227Z,99492.73
2019-04-22T10:47:11.918Z,99495.78
2019-04-22T10:49:38.434Z,99486.38
2019-04-22T10:52:04.645Z,99481.63
2019-04-22T10:54:31.485Z,99472.11
2019-04-22T10:56:59.027Z,99471.14
2019-04-22T10:59:24.952Z,99474.45
2019-04-22T11:01:50.951Z,99465.48
2019-04-22T11:04:17.550Z,99463.64
2019-04-22T11:06:52.154Z,99462.56
2019-04-22T11:09:12.488Z,99459.97
2019-04-22T11:11:48.768Z,99445.81
2019-04-22T11:14:07.476Z,99442.80
2019-04-22T11:16:35.177Z,99448.28
2019-04-22T11:19:01.478Z,99442.75
2019-04-22T11:21:27.557Z,99438.10
2019-04-22T11:23:54.571Z,99442.99
2019-04-22T11:26:21.883Z,99437.72
2019-04-22T11:28:49.328Z,99434.52
2019-04-22T11:31:16.542Z,99439.55
2019-04-22T11:33:42.874Z,99425.10
2019-04-22T11:36:10.123Z,99417.03
2019-04-22T11:38:40.381Z,99420.39
2019-04-22T11:41:05.423Z,99412.69
2019-04-22T11:43:32.430Z,99410.81
2019-04-22T11:45:59.568Z,99415.42
2019-04-22T11:48:27.034Z,99409.05
2019-04-22T11:50:53.739Z,99397.02
2019-04-22T11:53:20.693Z,99393.34
2019-04-22T11:55:46.837Z,99394.69
2019-04-22T11:58:12.957Z,99397.23
2019-04-22T12:00:40.934Z,99386.13
2019-04-22T12:03:07.465Z,99390.73
2019-04-22T12:05:34.299Z,99374.23
2019-04-22T12:08:00.627Z,99395.87
2019-04-22T12:10:35.702Z,99387.52
2019-04-22T12:12:57.741Z,99384.42
2019-04-22T12:15:24.689Z,99393.73
2019-04-22T12:17:51.031Z,99385.55
2019-04-22T12:20:18.396Z,99377.83
2019-04-22T12:22:45.333Z,99369.30
2019-04-22T12:25:17.930Z,99359.84
2019-04-22T12:27:41.255Z,99375.73
2019-04-22T12:30:12.345Z,99375.53
2019-04-22T12:32:39.021Z,99369.59
2019-04-22T12:35:07.198Z,99368.62
2019-04-22T12:37:40.643Z,99368.62
2019-04-22T12:40:04.271Z,99362.92
2019-04-22T12:42:31.269Z,99369.28
2019-04-22T12:44:58.327Z,99349.05
2019-04-22T12:47:24.472Z,99358.42
2019-04-22T12:49:59.802Z,99366.36
2019-04-22T12:52:26.648Z,99361.53
2019-04-22T12:54:46.929Z,99356.15
2019-04-22T12:57:14.638Z,99360.33
2019-04-22T12:59:41.802Z,99366.05
2019-04-22T13:02:09.084Z,99360.76
2019-04-22T13:04:36.251Z,99364.34
2019-04-22T13:07:03.818Z,99366.75
2019-04-22T13:09:29.823Z,99358.91
2019-04-22T13:11:57.169Z,99359.04
2019-04-22T13:14:23.488Z,99354.57
2019-04-22T13:16:49.347Z,99340.53
2019-04-22T13:19:18.649Z,99334.53
2019-04-22T13:21:44.740Z,99334.19
2019-04-22T13:24:11.021Z,99331.02
2019-04-22T13:26:38.113Z,99329.09
2019-04-22T13:29:05.207Z,99325.64
2019-04-22T13:31:32.871Z,99329.42
2019-04-22T13:34:01.682Z,99340.34
2019-04-22T13:36:28.296Z,99325.87
2019-04-22T13:38:55.237Z,99323.51
2019-04-22T13:41:31.792Z,99325.32
2019-04-22T13:43:49.320Z,99327.11
2019-04-22T13:46:16.902Z,99306.16
2019-04-22T13:49:08.716Z,99313.73
2019-04-22T13:52:15.377Z,99304.57
2019-04-22T13:56:23.793Z,99300.15
2019-04-22T13:58:48.448Z,99290.78
2019-04-22T14:01:05.180Z,99297.85
2019-04-22T14:03:42.837Z,99298.40
2019-04-22T14:06:09.135Z,99298.64
2019-04-22T14:08:35.329Z,99291.38
2019-04-22T14:11:14.903Z,99294.82
2019-04-22T14:13:30.066Z,99280.73
2019-04-22T14:15:56.993Z,99290.98
2019-04-22T14:18:23.230Z,99269.13
2019-04-22T14:20:49.286Z,99276.98
2019-04-22T14:23:15.952Z,99270.00
2019-04-22T14:25:43.094Z,99269.63
2019-04-22T14:30:37.177Z,99269.50
2019-04-22T14:33:04.997Z,99254.31
2019-04-22T14:35:31.350Z,99238.47
2019-04-22T14:37:58.312Z,99240.75
2019-04-22T14:40:26.567Z,99224.27
2019-04-22T14:43:17.618Z,99222.69
2019-04-22T14:44:24.478Z,99261.78
2019-04-22T14:45:58.712Z,99221.45
2019-04-22T14:48:22.583Z,99230.30
2019-04-22T14:50:42.240Z,99234.44
2019-04-22T14:53:11.230Z,99241.12
2019-04-22T14:55:22.831Z,99248.44
2019-04-22T14:57:44.406Z,99236.90
2019-04-22T15:00:15.853Z,99233.05
2019-04-22T15:02:41.939Z,99231.31
2019-04-22T15:05:08.214Z,99235.22
2019-04-22T15:07:35.096Z,99230.49
2019-04-22T15:10:01.985Z,99237.30
2019-04-22T15:12:36.701Z,99229.17
2019-04-22T15:14:57.573Z,99235.77
2019-04-22T15:17:42.900Z,99205.05
2019-04-22T15:20:11.938Z,99205.05
2019-04-22T15:22:38.876Z,99208.30
2019-04-22T15:25:05.850Z,99201.35
2019-04-22T15:27:33.069Z,99207.27
2019-04-22T15:29:59.296Z,99207.34
2019-04-22T15:32:25.380Z,99203.14
2019-04-22T15:34:51.317Z,99209.62
2019-04-22T15:37:18.086Z,99205.84
2019-04-22T15:39:45.665Z,99201.25
2019-04-22T15:42:19.840Z,99196.70
2019-04-22T15:44:39.968Z,99203.52
2019-04-22T15:47:06.995Z,99196.91
2019-04-22T15:49:34.029Z,99180.30
2019-04-22T15:52:02.170Z,99181.72
2019-04-22T15:54:28.073Z,99181.70
2019-04-22T15:56:54.876Z,99185.58
2019-04-22T15:59:41.679Z,99194.08
2019-04-22T16:01:50.463Z,99194.46
2019-04-22T16:04:16.983Z,99182.12
2019-04-22T16:06:43.276Z,99183.34
2019-04-22T16:09:11.112Z,99181.36
2019-04-22T16:11:38.050Z,99180.30
2019-04-22T16:14:04.346Z,99178.33
2019-04-22T16:16:30.555Z,99176.83
2019-04-22T16:18:56.482Z,99172.33
2019-04-22T16:21:32.669Z,99177.32
2019-04-22T16:24:04.532Z,99178.54
2019-04-22T16:26:38.426Z,99173.08
2019-04-22T16:29:05.311Z,99172.78
2019-04-22T16:31:35.674Z,99162.73
2019-04-22T16:34:02.652Z,99154.45
2019-04-22T16:36:29.192Z,99156.80
2019-04-22T16:38:57.009Z,99147.83
2019-04-22T16:41:24.552Z,99155.83
2019-04-22T16:43:50.842Z,99151.67
2019-04-22T16:46:16.884Z,99153.90
2019-04-22T16:48:43.394Z,99140.59
2019-04-22T16:51:09.899Z,99140.73
2019-04-22T16:53:37.047Z,99135.48
2019-04-22T16:56:04.630Z,99142.09
2019-04-22T16:58:30.864Z,99140.37
2019-04-22T17:00:58.633Z,99155.13
2019-04-22T17:03:26.853Z,99148.13
2019-04-22T17:06:10.028Z,99152.64
2019-04-22T17:08:37.005Z,99144.63
2019-04-22T17:11:04.175Z,99156.77
2019-04-22T17:13:32.807Z,99144.69
2019-04-22T17:16:00.861Z,99148.50
2019-04-22T17:18:27.359Z,99151.94
2019-04-22T17:20:54.888Z,99151.00
2019-04-22T17:23:20.959Z,99151.00
2019-04-22T17:25:48.217Z,99155.14
2019-04-22T17:28:15.398Z,99151.09
2019-04-22T17:30:41.624Z,99153.08
2019-04-22T17:33:08.442Z,99154.87
2019-04-22T17:35:36.044Z,99159.28
2019-04-22T17:38:12.569Z,99147.83
2019-04-22T17:40:49.461Z,99148.91
2019-04-22T17:43:34.272Z,99150.36
2019-04-22T17:45:57.270Z,99152.92
2019-04-22T17:48:30.455Z,99155.11
2019-04-22T17:51:10.600Z,99156.57
2019-04-22T17:53:34.807Z,99155.32
2019-04-22T17:56:02.361Z,99168.80
2019-04-22T17:58:29.029Z,99170.67
2019-04-22T18:00:50.714Z,99167.48
2019-04-22T18:03:13.105Z,99159.59
2019-04-22T18:05:38.431Z,99168.55
2019-04-22T18:08:17.722Z,99168.02
2019-04-22T18:10:44.048Z,99164.72
2019-04-22T18:13:23.825Z,99148.30
2019-04-22T18:15:43.534Z,99162.63
2019-04-22T18:18:12.514Z,99158.89
2019-04-22T18:20:29.302Z,99165.16
2019-04-22T18:22:54.643Z,99164.55
2019-04-22T18:25:29.572Z,99132.09
2019-04-22T18:28:10.462Z,99158.62
2019-04-22T18:30:20.362Z,99151.08
2019-04-22T18:32:57.050Z,99154.75
2019-04-22T18:35:26.545Z,99154.15
2019-04-22T18:37:53.660Z,99155.59
2019-04-22T18:40:24.039Z,99138.10
2019-04-22T18:42:58.401Z,99149.72
2019-04-22T18:47:48.815Z,99149.58
2019-04-22T18:50:26.531Z,99147.79
2019-04-22T18:52:59.234Z,99145.92
2019-04-22T18:55:20.733Z,99149.90
2019-04-22T18:58:02.794Z,99148.49
2019-04-22T19:00:23.321Z,99145.33
2019-04-22T19:02:55.831Z,99140.92
2019-04-22T19:05:34.704Z,99147.58
2019-04-22T19:08:12.657Z,99155.18
2019-04-22T19:10:53.255Z,99150.75
2019-04-22T19:13:34.804Z,99160.00
2019-04-22T19:15:39.903Z,99164.89
2019-04-22T19:18:10.545Z,99162.31
2019-04-22T19:20:38.080Z,99160.74
2019-04-22T19:23:04.179Z,99163.48
2019-04-22T19:25:24.075Z,99165.27
2019-04-22T19:28:01.447Z,99161.68
2019-04-22T19:30:30.048Z,99162.80
2019-04-22T19:32:58.600Z,99152.95
2019-04-22T19:35:25.723Z,99152.41
2019-04-22T19:37:50.811Z,99147.70
2019-04-22T19:40:24.078Z,99154.30
2019-04-22T19:42:57.484Z,99138.20
2019-04-22T19:45:15.821Z,99147.42
2019-04-22T19:47:53.533Z,99150.52
2019-04-22T19:50:16.392Z,99135.92
2019-04-22T19:52:39.814Z,99140.37
2019-04-22T19:55:12.586Z,99131.13
2019-04-22T19:57:33.998Z,99131.31
2019-04-22T20:00:05.402Z,99144.89
2019-04-22T20:02:41.124Z,99127.79
2019-04-22T20:05:31.081Z,99124.77
2019-04-22T20:07:46.958Z,99131.16
2019-04-22T20:10:20.661Z,99115.27
2019-04-22T20:12:49.316Z,99111.21
2019-04-22T20:15:15.618Z,99106.70
2019-04-22T20:18:07.567Z,99100.77
2019-04-22T20:20:19.671Z,99102.73
2019-04-22T20:22:37.504Z,99094.15
2019-04-22T20:24:58.368Z,99084.51
2019-04-22T20:27:36.404Z,99097.31
2019-04-22T20:30:13.735Z,99089.57
2019-04-22T20:32:32.663Z,99085.00
2019-04-22T20:35:09.451Z,99097.66
2019-04-22T20:37:37.065Z,99096.26
2019-04-22T20:40:08.583Z,99087.00
2019-04-22T20:42:45.032Z,99080.56
2019-04-22T20:45:04.010Z,99084.99
2019-04-22T20:47:29.312Z,99074.61
2019-04-22T20:50:02.226Z,99083.48
2019-04-22T20:52:34.226Z,99079.99
2019-04-22T20:54:55.913Z,99073.06
2019-04-22T20:57:31.957Z,99082.14
2019-04-22T20:59:52.247Z,99072.46
2019-04-22T21:02:17.955Z,99080.70
2019-04-22T21:04:41.462Z,99063.17
2019-04-22T21:07:13.805Z,99076.47
2019-04-22T21:09:48.767Z,99061.77
2019-04-22T21:12:13.944Z,99055.08
2019-04-22T21:14:51.422Z,99052.31
2019-04-22T21:17:13.622Z,99049.64
2019-04-22T21:19:47.626Z,99046.97
2019-04-22T21:22:07.966Z,99046.88
2019-04-22T21:24:34.973Z,99043.82
2019-04-22T21:27:10.252Z,99048.79
2019-04-22T21:29:26.594Z,99053.92
2019-04-22T21:32:06.223Z,99058.67
2019-04-22T21:34:31.713Z,99045.66
2019-04-22T21:37:02.596Z,99044.06
2019-04-22T21:39:26.347Z,99048.22
2019-04-22T21:41:54.405Z,99036.75
2019-04-22T21:44:29.688Z,99033.83
2019-04-22T21:46:57.703Z,99018.63
2019-04-22T21:49:25.422Z,99020.48
2019-04-22T21:51:56.811Z,99022.33
2019-04-22T21:54:22.424Z,99019.54
2019-04-22T21:57:07.435Z,99011.86
2019-04-22T21:59:29.296Z,98999.20
2019-04-22T22:01:56.877Z,99001.98
2019-04-22T22:04:24.525Z,98997.38
2019-04-22T22:06:41.238Z,98992.77
2019-04-22T22:09:20.489Z,99002.59
2019-04-22T22:11:49.145Z,98984.46
2019-04-22T22:14:16.969Z,98993.72
2019-04-22T22:16:38.416Z,98977.55
2019-04-22T22:19:11.121Z,98985.48
2019-04-22T22:21:49.657Z,98972.34
2019-04-22T22:24:11.559Z,98955.55
2019-04-22T22:26:39.925Z,98974.06
2019-04-22T22:29:15.664Z,98980.15
2019-04-22T22:31:36.767Z,98965.29
2019-04-22T22:34:04.127Z,98983.40
2019-04-22T22:36:26.752Z,98982.38
2019-04-22T22:38:48.364Z,98975.64
2019-04-22T22:41:03.705Z,98978.73
2019-04-22T22:43:36.082Z,98979.03
2019-04-22T22:46:12.054Z,98976.82
2019-04-22T22:48:51.392Z,98974.44
2019-04-22T22:51:15.642Z,98973.70
2019-04-22T22:53:44.415Z,98969.31
2019-04-22T22:56:13.680Z,98971.06
2019-04-22T22:58:42.534Z,98966.95
2019-04-22T23:01:06.351Z,98954.80
2019-04-22T23:06:03.235Z,98959.88
2019-04-22T23:08:31.956Z,98956.61
2019-04-22T23:15:44.368Z,98957.22
2019-04-22T23:18:01.675Z,98961.70
2019-04-22T23:20:35.404Z,98958.50
2019-04-22T23:23:23.909Z,98950.52
2019-04-22T23:25:54.788Z,98948.84
2019-04-22T23:28:16.117Z,98953.59
2019-04-22T23:30:57.106Z,98965.20
2019-04-22T23:33:37.469Z,98964.48
2019-04-22T23:36:10.102Z,98958.89
2019-04-22T23:38:47.654Z,98947.31
2019-04-22T23:41:42.717Z,98947.31
2019-04-22T23:44:06.993Z,98949.23
2019-04-22T23:46:25.434Z,98945.65
2019-04-22T23:48:51.558Z,98938.23
2019-04-22T23:51:19.668Z,98940.25
2019-04-22T23:54:05.832Z,98933.89
2019-04-22T23:56:15.206Z,98918.52
2019-04-22T23:59:02.660Z,98912.36
